createdAt,value
2023-05-19T00:06:54.726Z,18.19
2023-05-19T00:09:22.992Z,18.35
2023-05-19T00:11:51.439Z,18.32
2023-05-19T00:14:20.204Z,18.28
2023-05-19T00:16:48.982Z,18.26
2023-05-19T00:19:17.745Z,18.35
2023-05-19T00:21:45.394Z,18.23
2023-05-19T00:24:13.563Z,18.26
2023-05-19T00:26:41.154Z,18.10
2023-05-19T00:29:09.522Z,18.07
2023-05-19T00:31:37.193Z,18.26
2023-05-19T00:34:05.521Z,17.96
2023-05-19T00:36:33.471Z,18.02
2023-05-19T00:39:01.144Z,18.10
2023-05-19T00:41:29.005Z,18.22
2023-05-19T00:43:56.615Z,18.19
2023-05-19T00:46:25.201Z,18.03
2023-05-19T00:48:53.339Z,18.12
2023-05-19T00:51:21.505Z,18.33
2023-05-19T00:53:51.319Z,18.27
2023-05-19T00:56:19.618Z,18.24
2023-05-19T00:58:48.177Z,18.21
2023-05-19T01:01:17.765Z,18.10
2023-05-19T01:03:47.314Z,17.99
2023-05-19T01:06:15.524Z,18.07
2023-05-19T01:08:43.136Z,17.94
2023-05-19T01:11:10.893Z,18.01
2023-05-19T01:13:41.819Z,17.89
2023-05-19T01:16:25.473Z,18.15
2023-05-19T01:19:12.574Z,18.09
2023-05-19T01:22:22.943Z,17.98
2023-05-19T01:24:59.711Z,18.08
2023-05-19T01:27:59.642Z,18.07
2023-05-19T01:30:52.848Z,18.19
2023-05-19T01:33:23.040Z,18.28
2023-05-19T01:35:53.590Z,18.16
2023-05-19T01:38:23.381Z,18.04
2023-05-19T01:40:52.710Z,17.93
2023-05-19T01:43:24.414Z,17.92
2023-05-19T01:45:52.800Z,17.88
2023-05-19T01:48:21.056Z,17.91
2023-05-19T01:50:49.438Z,17.66
2023-05-19T01:53:17.305Z,17.76
2023-05-19T01:55:49.648Z,17.92
2023-05-19T01:58:44.496Z,17.92
2023-05-19T02:01:18.929Z,17.84
2023-05-19T02:04:11.230Z,17.94
2023-05-19T02:07:04.035Z,17.79
2023-05-19T02:10:02.840Z,17.74
2023-05-19T02:12:40.541Z,17.65
2023-05-19T02:15:16.530Z,17.49
2023-05-19T02:17:51.807Z,17.53
2023-05-19T02:20:20.120Z,17.51
2023-05-19T02:22:49.074Z,17.52
2023-05-19T02:25:17.296Z,17.54
2023-05-19T02:27:45.786Z,17.66
2023-05-19T02:30:13.879Z,17.68
2023-05-19T02:32:42.008Z,17.47
2023-05-19T02:35:10.443Z,17.47
2023-05-19T02:37:38.783Z,17.62
2023-05-19T02:40:06.880Z,17.68
2023-05-19T02:42:34.822Z,17.72
2023-05-19T02:45:02.389Z,17.77
2023-05-19T02:47:30.172Z,17.82
2023-05-19T02:49:58.223Z,17.83
2023-05-19T02:52:25.848Z,17.73
2023-05-19T02:54:53.390Z,17.63
2023-05-19T02:57:21.001Z,17.73
2023-05-19T02:59:48.934Z,17.63
2023-05-19T03:02:16.513Z,17.50
2023-05-19T03:04:44.384Z,17.58
2023-05-19T03:07:14.212Z,17.56
2023-05-19T03:09:42.524Z,17.71
2023-05-19T03:12:13.194Z,17.46
2023-05-19T03:14:41.203Z,17.37
2023-05-19T03:17:10.328Z,17.37
2023-05-19T03:19:38.082Z,17.39
2023-05-19T03:22:05.736Z,17.35
2023-05-19T03:24:34.842Z,17.51
2023-05-19T03:27:05.833Z,17.42
2023-05-19T03:29:34.136Z,17.28
2023-05-19T03:32:01.860Z,17.32
2023-05-19T03:34:30.044Z,17.38
2023-05-19T03:36:58.465Z,17.37
2023-05-19T03:39:26.018Z,17.30
2023-05-19T03:41:54.171Z,17.45
2023-05-19T03:44:21.815Z,17.43
2023-05-19T03:46:50.013Z,17.43
2023-05-19T03:49:35.947Z,17.37
2023-05-19T03:52:22.409Z,17.32
2023-05-19T03:55:09.559Z,17.33
2023-05-19T03:57:37.835Z,17.44
2023-05-19T04:00:07.152Z,17.49
2023-05-19T04:02:40.937Z,17.43
2023-05-19T04:05:09.420Z,17.36
2023-05-19T04:07:38.674Z,17.29
2023-05-19T04:10:06.833Z,17.30
2023-05-19T04:12:34.614Z,17.26
2023-05-19T04:15:02.657Z,17.17
2023-05-19T04:17:30.407Z,17.00
2023-05-19T04:19:58.116Z,17.09
2023-05-19T04:22:26.116Z,17.06
2023-05-19T04:24:55.050Z,17.01
2023-05-19T04:27:23.094Z,16.99
2023-05-19T04:29:50.673Z,17.07
2023-05-19T04:32:18.612Z,17.16
2023-05-19T04:34:46.550Z,17.12
2023-05-19T04:37:20.424Z,17.08
2023-05-19T04:39:48.374Z,17.22
2023-05-19T04:42:19.322Z,17.32
2023-05-19T04:44:49.470Z,17.23
2023-05-19T04:47:18.091Z,17.46
2023-05-19T04:49:46.105Z,17.41
2023-05-19T04:52:13.927Z,17.47
2023-05-19T04:54:42.307Z,17.48
2023-05-19T04:57:13.200Z,17.42
2023-05-19T04:59:40.951Z,17.52
2023-05-19T05:02:09.440Z,17.43
2023-05-19T05:04:42.466Z,17.69
2023-05-19T05:07:10.912Z,17.93
2023-05-19T05:09:39.740Z,17.95
2023-05-19T05:12:09.144Z,17.88
2023-05-19T05:14:40.194Z,18.03
2023-05-19T05:17:09.782Z,18.20
2023-05-19T05:19:38.119Z,18.22
2023-05-19T05:22:08.164Z,18.15
2023-05-19T05:24:39.484Z,18.24
2023-05-19T05:27:08.301Z,17.77
2023-05-19T05:29:36.696Z,17.87
2023-05-19T05:32:06.518Z,18.20
2023-05-19T05:34:36.036Z,18.24
2023-05-19T05:37:03.754Z,17.95
2023-05-19T05:39:31.954Z,18.02
2023-05-19T05:42:01.036Z,18.18
2023-05-19T05:44:29.277Z,18.33
2023-05-19T05:46:58.442Z,18.51
2023-05-19T05:49:26.734Z,18.54
2023-05-19T05:52:05.837Z,18.63
2023-05-19T05:54:40.676Z,18.64
2023-05-19T05:57:09.715Z,18.62
2023-05-19T05:59:37.459Z,18.74
2023-05-19T06:02:05.171Z,18.70
2023-05-19T06:04:33.511Z,18.69
2023-05-19T06:07:02.002Z,18.62
2023-05-19T06:09:34.272Z,18.67
2023-05-19T06:12:03.483Z,18.76
2023-05-19T06:14:36.461Z,18.76
2023-05-19T06:17:24.391Z,18.91
2023-05-19T06:19:52.775Z,18.86
2023-05-19T06:22:21.334Z,19.12
2023-05-19T06:24:49.246Z,18.95
2023-05-19T06:27:17.459Z,18.77
2023-05-19T06:29:46.026Z,19.07
2023-05-19T06:32:14.161Z,18.76
2023-05-19T06:34:42.178Z,19.16
2023-05-19T06:37:11.330Z,19.02
2023-05-19T06:39:39.790Z,19.11
2023-05-19T06:42:07.500Z,19.28
2023-05-19T06:44:58.161Z,19.23
2023-05-19T06:47:28.239Z,19.26
2023-05-19T06:49:57.054Z,19.26
2023-05-19T06:52:28.538Z,19.35
2023-05-19T06:54:57.283Z,19.26
2023-05-19T06:57:25.009Z,19.45
2023-05-19T06:59:52.687Z,19.38
2023-05-19T07:02:20.316Z,19.43
2023-05-19T07:04:48.925Z,19.26
2023-05-19T07:07:17.891Z,19.50
2023-05-19T07:09:46.297Z,19.18
2023-05-19T07:12:15.225Z,19.11
2023-05-19T07:14:42.762Z,19.10
2023-05-19T07:17:11.858Z,19.30
2023-05-19T07:19:44.175Z,19.21
2023-05-19T07:22:12.127Z,19.32
2023-05-19T07:24:40.843Z,19.29
2023-05-19T07:27:09.318Z,19.35
2023-05-19T07:29:37.095Z,19.49
2023-05-19T07:32:05.748Z,19.83
2023-05-19T07:34:33.334Z,19.75
2023-05-19T07:37:00.902Z,20.29
2023-05-19T07:39:29.857Z,19.95
2023-05-19T07:41:57.393Z,19.63
2023-05-19T07:44:27.122Z,19.71
2023-05-19T07:46:55.505Z,19.70
2023-05-19T07:49:23.551Z,19.93
2023-05-19T07:51:51.892Z,20.02
2023-05-19T07:54:21.358Z,20.22
2023-05-19T07:56:48.902Z,19.68
2023-05-19T07:59:16.745Z,19.68
2023-05-19T08:01:44.765Z,19.78
2023-05-19T08:04:13.274Z,19.98
2023-05-19T08:06:44.431Z,19.91
2023-05-19T08:09:12.356Z,19.84
2023-05-19T08:11:40.714Z,19.66
2023-05-19T08:14:08.540Z,19.53
2023-05-19T08:16:36.057Z,19.63
2023-05-19T08:19:05.481Z,19.38
2023-05-19T08:21:34.694Z,20.05
2023-05-19T08:24:02.972Z,19.69
2023-05-19T08:26:30.748Z,19.68
2023-05-19T08:28:58.699Z,20.07
2023-05-19T08:31:26.324Z,20.02
2023-05-19T08:33:54.134Z,19.92
2023-05-19T08:36:22.352Z,20.28
2023-05-19T08:38:50.072Z,20.24
2023-05-19T08:41:18.130Z,20.87
2023-05-19T08:43:46.137Z,20.74
2023-05-19T08:46:16.358Z,20.71
2023-05-19T08:48:45.451Z,20.33
2023-05-19T08:51:42.021Z,20.55
2023-05-19T08:54:14.865Z,20.73
2023-05-19T08:56:44.511Z,20.76
2023-05-19T08:59:16.479Z,20.90
2023-05-19T09:01:48.463Z,20.93
2023-05-19T09:04:17.149Z,20.07
2023-05-19T09:06:45.437Z,19.96
2023-05-19T09:09:13.738Z,19.72
2023-05-19T09:11:46.482Z,19.72
2023-05-19T09:14:14.062Z,20.03
2023-05-19T09:16:42.176Z,20.27
2023-05-19T09:19:17.899Z,20.03
2023-05-19T09:21:46.341Z,20.18
2023-05-19T09:24:14.289Z,19.81
2023-05-19T09:26:43.170Z,19.89
2023-05-19T09:29:15.644Z,19.88
2023-05-19T09:31:51.646Z,19.92
2023-05-19T09:34:25.066Z,19.95
2023-05-19T09:36:54.146Z,19.95
2023-05-19T09:39:23.506Z,20.53
2023-05-19T09:41:53.630Z,20.35
2023-05-19T09:44:21.288Z,20.94
2023-05-19T09:46:53.925Z,20.60
2023-05-19T09:49:32.730Z,20.63
2023-05-19T09:52:06.326Z,20.76
2023-05-19T09:54:34.944Z,20.41
2023-05-19T09:57:07.104Z,20.69
2023-05-19T09:59:38.983Z,20.91
2023-05-19T10:02:15.370Z,20.90
2023-05-19T10:04:44.026Z,21.01
2023-05-19T10:07:15.117Z,21.40
2023-05-19T10:09:44.077Z,21.50
2023-05-19T10:12:13.426Z,21.41
2023-05-19T10:14:41.311Z,22.07
2023-05-19T10:17:10.448Z,22.22
2023-05-19T10:19:40.095Z,21.78
2023-05-19T10:22:07.671Z,21.69
2023-05-19T10:24:35.920Z,22.13
2023-05-19T10:27:06.428Z,22.65
2023-05-19T10:29:38.224Z,22.95
2023-05-19T10:32:15.554Z,22.84
2023-05-19T10:34:59.332Z,22.13
2023-05-19T10:37:57.815Z,21.46
2023-05-19T10:40:32.348Z,21.57
2023-05-19T10:43:03.018Z,20.92
2023-05-19T10:45:36.594Z,21.30
2023-05-19T10:48:05.105Z,21.21
2023-05-19T10:50:38.875Z,21.66
2023-05-19T10:53:14.939Z,21.52
2023-05-19T10:55:56.323Z,20.79
2023-05-19T10:58:39.400Z,21.29
2023-05-19T11:01:10.012Z,21.33
2023-05-19T11:03:57.266Z,20.77
2023-05-19T11:06:30.052Z,20.77
2023-05-19T11:09:10.649Z,21.34
2023-05-19T11:11:49.373Z,20.85
2023-05-19T11:14:26.217Z,20.91
2023-05-19T11:16:58.909Z,20.98
2023-05-19T11:19:31.361Z,21.03
2023-05-19T11:22:13.043Z,21.88
2023-05-19T11:24:40.698Z,21.92
2023-05-19T11:27:20.626Z,21.40
2023-05-19T11:29:49.614Z,20.90
2023-05-19T11:32:18.327Z,20.84
2023-05-19T11:34:46.240Z,20.94
2023-05-19T11:37:14.351Z,20.90
2023-05-19T11:39:42.205Z,21.04
2023-05-19T11:42:12.943Z,20.86
2023-05-19T11:44:41.486Z,20.84
2023-05-19T11:47:09.716Z,20.95
2023-05-19T11:49:37.335Z,21.15
2023-05-19T11:52:05.183Z,21.06
2023-05-19T11:54:35.041Z,20.61
2023-05-19T11:57:04.485Z,20.39
2023-05-19T11:59:37.809Z,20.55
2023-05-19T12:02:22.607Z,20.39
2023-05-19T12:04:51.145Z,20.11
2023-05-19T12:07:23.496Z,20.15
2023-05-19T12:09:52.346Z,20.13
2023-05-19T12:12:21.316Z,20.59
2023-05-19T12:14:51.006Z,20.83
2023-05-19T12:17:21.280Z,20.85
2023-05-19T12:19:50.812Z,20.73
2023-05-19T12:22:19.221Z,20.32
2023-05-19T12:24:47.835Z,20.42
2023-05-19T12:27:20.972Z,20.77
2023-05-19T12:29:52.889Z,20.66
2023-05-19T12:32:25.618Z,20.39
2023-05-19T12:34:55.942Z,20.43
2023-05-19T12:37:27.887Z,20.61
2023-05-19T12:39:58.457Z,21.03
2023-05-19T12:42:31.656Z,20.95
2023-05-19T12:45:03.107Z,21.36
2023-05-19T12:47:33.831Z,21.42
2023-05-19T12:50:04.298Z,20.98
2023-05-19T12:52:35.678Z,20.86
2023-05-19T12:55:06.984Z,21.03
2023-05-19T12:57:36.472Z,21.08
2023-05-19T13:00:14.026Z,20.44
2023-05-19T13:03:06.037Z,20.44
2023-05-19T13:05:46.626Z,20.46
2023-05-19T13:08:17.012Z,20.63
2023-05-19T13:10:46.971Z,20.47
2023-05-19T13:13:33.614Z,20.59
2023-05-19T13:16:20.324Z,20.38
2023-05-19T13:19:13.939Z,20.31
2023-05-19T13:21:52.263Z,20.27
2023-05-19T13:24:20.219Z,20.56
2023-05-19T13:26:48.900Z,20.33
2023-05-19T13:29:16.576Z,20.62
2023-05-19T13:31:44.508Z,20.47
2023-05-19T13:34:12.045Z,20.41
2023-05-19T13:36:43.058Z,20.47
2023-05-19T13:39:11.073Z,20.18
2023-05-19T13:41:38.698Z,20.04
2023-05-19T13:44:06.461Z,20.01
2023-05-19T13:46:44.590Z,19.70
2023-05-19T13:49:14.423Z,19.27
2023-05-19T13:51:44.520Z,19.38
2023-05-19T13:54:12.652Z,19.28
2023-05-19T13:56:40.528Z,19.25
2023-05-19T13:59:08.606Z,19.37
2023-05-19T14:01:37.108Z,18.82
2023-05-19T14:04:05.468Z,18.02
2023-05-19T14:06:33.340Z,17.66
2023-05-19T14:09:01.298Z,17.69
2023-05-19T14:11:29.152Z,17.58
2023-05-19T14:13:56.633Z,17.48
2023-05-19T14:16:26.442Z,17.17
2023-05-19T14:18:55.072Z,17.32
2023-05-19T14:21:23.510Z,17.23
2023-05-19T14:23:51.781Z,17.41
2023-05-19T14:26:20.090Z,17.58
2023-05-19T14:28:48.071Z,17.15
2023-05-19T14:31:16.327Z,16.91
2023-05-19T14:33:43.976Z,17.22
2023-05-19T14:36:11.770Z,17.38
2023-05-19T14:38:39.460Z,17.43
2023-05-19T14:41:07.601Z,17.46
2023-05-19T14:43:36.284Z,17.54
2023-05-19T14:46:04.372Z,17.70
2023-05-19T14:48:32.358Z,17.78
2023-05-19T14:50:59.973Z,17.99
2023-05-19T14:53:27.644Z,18.17
2023-05-19T14:55:55.353Z,18.39
2023-05-19T14:58:29.006Z,18.32
2023-05-19T15:01:00.387Z,18.22
2023-05-19T15:03:28.044Z,18.57
2023-05-19T15:05:55.732Z,18.51
2023-05-19T15:08:23.910Z,18.54
2023-05-19T15:10:51.679Z,18.56
2023-05-19T15:13:21.507Z,18.54
2023-05-19T15:15:49.272Z,18.30
2023-05-19T15:18:18.827Z,18.40
2023-05-19T15:20:47.022Z,18.43
2023-05-19T15:23:15.135Z,18.55
2023-05-19T15:25:42.782Z,18.47
2023-05-19T15:28:10.513Z,18.66
2023-05-19T15:30:38.988Z,18.78
2023-05-19T15:33:06.603Z,18.71
2023-05-19T15:35:34.683Z,18.71
2023-05-19T15:38:06.156Z,18.57
2023-05-19T15:40:34.453Z,18.46
2023-05-19T15:43:02.633Z,18.26
2023-05-19T15:45:30.430Z,18.20
2023-05-19T15:47:58.092Z,17.89
2023-05-19T15:50:26.781Z,17.78
2023-05-19T15:52:54.440Z,18.10
2023-05-19T15:55:22.222Z,18.11
2023-05-19T15:57:50.362Z,18.17
2023-05-19T16:00:18.985Z,18.06
2023-05-19T16:02:47.269Z,18.05
2023-05-19T16:05:14.937Z,17.96
2023-05-19T16:07:43.009Z,17.59
2023-05-19T16:10:10.896Z,17.31
2023-05-19T16:12:39.006Z,17.45
2023-05-19T16:15:07.595Z,17.77
2023-05-19T16:17:35.769Z,17.65
2023-05-19T16:20:04.632Z,17.78
2023-05-19T16:22:32.730Z,17.78
2023-05-19T16:25:00.775Z,17.77
2023-05-19T16:27:28.491Z,17.79
2023-05-19T16:29:56.576Z,17.85
2023-05-19T16:32:24.679Z,18.01
2023-05-19T16:34:52.937Z,18.16
2023-05-19T16:37:20.624Z,18.25
2023-05-19T16:39:48.761Z,18.42
2023-05-19T16:42:16.831Z,18.50
2023-05-19T16:44:44.807Z,18.47
2023-05-19T16:47:12.778Z,18.45
2023-05-19T16:49:44.144Z,18.32
2023-05-19T16:52:12.081Z,18.18
2023-05-19T16:54:40.108Z,18.01
2023-05-19T16:57:08.082Z,18.07
2023-05-19T16:59:36.083Z,18.24
2023-05-19T17:02:04.428Z,18.09
2023-05-19T17:04:32.036Z,18.18
2023-05-19T17:06:59.876Z,17.94
2023-05-19T17:09:27.379Z,18.10
2023-05-19T17:11:56.155Z,17.78
2023-05-19T17:14:23.807Z,17.86
2023-05-19T17:16:52.528Z,18.03
2023-05-19T17:19:20.553Z,18.05
2023-05-19T17:21:49.099Z,18.02
2023-05-19T17:24:17.270Z,18.02
2023-05-19T17:26:45.017Z,18.07
2023-05-19T17:29:12.640Z,17.98
2023-05-19T17:31:40.365Z,17.97
2023-05-19T17:34:08.531Z,17.78
2023-05-19T17:36:36.600Z,17.70
2023-05-19T17:39:04.654Z,17.86
2023-05-19T17:41:32.796Z,17.74
2023-05-19T17:44:01.017Z,17.78
2023-05-19T17:46:30.338Z,17.65
2023-05-19T17:48:59.060Z,17.80
2023-05-19T17:51:27.626Z,17.76
2023-05-19T17:53:55.668Z,17.74
2023-05-19T17:56:24.375Z,17.75
2023-05-19T17:58:52.486Z,17.52
2023-05-19T18:01:23.930Z,17.50
2023-05-19T18:03:52.703Z,17.68
2023-05-19T18:06:20.948Z,17.77
2023-05-19T18:08:51.362Z,17.73
2023-05-19T18:11:19.956Z,17.72
2023-05-19T18:13:48.906Z,17.68
2023-05-19T18:16:17.286Z,17.72
2023-05-19T18:18:50.270Z,17.70
2023-05-19T18:21:18.285Z,17.64
2023-05-19T18:23:48.008Z,17.60
2023-05-19T18:26:15.923Z,17.69
2023-05-19T18:28:43.936Z,17.64
2023-05-19T18:31:17.546Z,17.63
2023-05-19T18:33:47.109Z,17.66
2023-05-19T18:36:17.752Z,17.40
2023-05-19T18:38:47.403Z,17.21
2023-05-19T18:41:14.942Z,17.22
2023-05-19T18:43:43.024Z,17.31
2023-05-19T18:46:10.719Z,17.52
2023-05-19T18:48:38.436Z,17.71
2023-05-19T18:51:07.307Z,17.77
2023-05-19T18:53:35.689Z,17.78
2023-05-19T18:56:04.178Z,17.84
2023-05-19T18:58:32.534Z,17.77
2023-05-19T19:01:00.243Z,17.73
2023-05-19T19:03:28.701Z,17.37
2023-05-19T19:05:58.154Z,17.48
2023-05-19T19:08:26.314Z,17.48
2023-05-19T19:10:59.190Z,17.33
2023-05-19T19:13:28.366Z,17.44
2023-05-19T19:15:56.514Z,17.51
2023-05-19T19:18:26.198Z,17.44
2023-05-19T19:20:56.720Z,17.47
2023-05-19T19:23:24.735Z,17.50
2023-05-19T19:25:53.953Z,17.62
2023-05-19T19:28:21.571Z,17.66
2023-05-19T19:30:49.707Z,17.46
2023-05-19T19:33:17.857Z,17.58
2023-05-19T19:35:49.143Z,17.68
2023-05-19T19:38:16.789Z,17.56
2023-05-19T19:40:44.854Z,17.73
2023-05-19T19:43:13.280Z,17.45
2023-05-19T19:45:41.669Z,17.37
2023-05-19T19:48:09.929Z,17.47
2023-05-19T19:50:37.721Z,17.47
2023-05-19T19:53:05.505Z,17.56
2023-05-19T19:55:33.151Z,17.40
2023-05-19T19:58:00.652Z,17.32
2023-05-19T20:00:29.146Z,17.32
2023-05-19T20:03:05.205Z,17.35
2023-05-19T20:05:33.809Z,17.35
2023-05-19T20:08:01.875Z,17.44
2023-05-19T20:10:30.060Z,17.51
2023-05-19T20:12:59.351Z,17.53
2023-05-19T20:15:27.383Z,17.44
2023-05-19T20:17:55.101Z,17.63
2023-05-19T20:20:22.710Z,17.54
2023-05-19T20:22:50.795Z,17.54
2023-05-19T20:25:18.841Z,17.36
2023-05-19T20:27:47.342Z,17.24
2023-05-19T20:30:15.053Z,17.30
2023-05-19T20:32:42.608Z,17.39
2023-05-19T20:35:10.273Z,17.34
2023-05-19T20:37:38.142Z,17.51
2023-05-19T20:40:06.571Z,17.33
2023-05-19T20:42:34.324Z,17.17
2023-05-19T20:45:01.993Z,17.17
2023-05-19T20:47:30.612Z,17.17
2023-05-19T20:49:58.909Z,17.18
2023-05-19T20:52:27.232Z,17.20
2023-05-19T20:54:54.992Z,17.17
2023-05-19T20:57:22.712Z,17.22
2023-05-19T20:59:51.115Z,17.21
2023-05-19T21:02:18.837Z,17.30
2023-05-19T21:04:46.829Z,17.34
2023-05-19T21:07:14.782Z,17.19
2023-05-19T21:09:42.882Z,17.16
2023-05-19T21:12:11.035Z,17.19
2023-05-19T21:14:39.071Z,17.10
2023-05-19T21:17:07.421Z,17.22
2023-05-19T21:19:37.368Z,17.37
2023-05-19T21:22:05.202Z,17.35
2023-05-19T21:24:33.213Z,17.27
2023-05-19T21:27:01.255Z,17.43
2023-05-19T21:29:28.955Z,17.44
2023-05-19T21:31:56.684Z,17.34
2023-05-19T21:34:24.848Z,17.39
2023-05-19T21:36:52.956Z,17.46
2023-05-19T21:39:21.727Z,17.42
2023-05-19T21:41:49.525Z,17.62
2023-05-19T21:44:18.323Z,17.40
2023-05-19T21:46:46.104Z,17.34
2023-05-19T21:49:13.743Z,17.32
2023-05-19T21:51:42.362Z,17.32
2023-05-19T21:54:10.852Z,17.31
2023-05-19T21:56:38.957Z,17.37
2023-05-19T21:59:07.000Z,17.28
2023-05-19T22:01:35.050Z,17.31
2023-05-19T22:04:03.321Z,17.29
2023-05-19T22:06:31.686Z,17.23
2023-05-19T22:09:01.282Z,17.11
2023-05-19T22:11:29.243Z,17.03
2023-05-19T22:13:57.815Z,17.05
2023-05-19T22:16:25.976Z,17.09
2023-05-19T22:18:54.714Z,16.90
2023-05-19T22:21:22.322Z,17.08
2023-05-19T22:23:52.193Z,17.05
2023-05-19T22:26:19.765Z,17.18
2023-05-19T22:28:47.302Z,17.17
2023-05-19T22:31:15.208Z,17.19
2023-05-19T22:33:43.667Z,17.08
2023-05-19T22:36:11.744Z,17.20
2023-05-19T22:38:40.302Z,17.25
2023-05-19T22:41:08.451Z,17.47
2023-05-19T22:43:36.118Z,17.37
2023-05-19T22:46:04.018Z,17.36
2023-05-19T22:48:32.078Z,17.48
2023-05-19T22:51:00.534Z,17.44
2023-05-19T22:53:28.151Z,17.50
2023-05-19T22:55:55.821Z,17.30
2023-05-19T22:58:23.807Z,17.32
2023-05-19T23:00:51.375Z,17.29
2023-05-19T23:03:19.513Z,17.50
2023-05-19T23:05:47.036Z,17.29
2023-05-19T23:08:14.662Z,17.25
2023-05-19T23:10:42.305Z,17.27
2023-05-19T23:13:10.253Z,17.45
2023-05-19T23:15:38.245Z,17.51
2023-05-19T23:18:07.525Z,17.45
2023-05-19T23:20:35.449Z,17.61
2023-05-19T23:23:03.019Z,17.60
2023-05-19T23:25:30.690Z,17.63
2023-05-19T23:27:58.698Z,17.51
2023-05-19T23:30:26.282Z,17.56
2023-05-19T23:32:54.066Z,17.51
2023-05-19T23:35:21.819Z,17.50
2023-05-19T23:37:49.847Z,17.57
2023-05-19T23:40:17.379Z,17.63
2023-05-19T23:42:45.438Z,17.65
2023-05-19T23:45:13.055Z,17.67
2023-05-19T23:47:40.619Z,17.62
2023-05-19T23:50:09.209Z,17.73
2023-05-19T23:52:36.795Z,17.41
2023-05-19T23:55:05.948Z,17.45
2023-05-19T23:57:33.896Z,17.48
